Terminal Aerodrome Forecast
Issued by NWS

Home | Current Version | Previous Version | Text Only | Print | Product List | Glossary On
Versions: 1 2 3 4 5 6 7 8 9 10 11 12 13 14
000
FTUS42 KMLB 231329 AAA
TAFFPR
TAF AMD
KFPR 231329Z 2313/2412 14010KT P6SM SCT020 SCT030 BKN250
     FM231400 14012KT P6SM SCT025 OVC250
     FM231800 14015G20KT P6SM VCSH SCT025 BKN050 OVC200
     FM240000 17007KT P6SM VCSH SCT040 BKN100=

USA.gov is the U.S. government's official web portal to all federal, state and local government web resources and services.